RYR8FY LGIR-EBCI
Flight info
| Callsign | RYR8FY |
|---|---|
| Flight time | N/A |
| Altitude | 38000 |
| Route | EPALO M749 DIRMI UM749 ATV DCT BITLA/N0439F400 DCT MAVAR DCT AKIKA DCT SOLGU DCT ETOBI DCT MONID DCT NIVES DCT ZARVE DCT ABISO DCT NANIT DCT ERKIR DCT BABEG DCT IDOVI Z104 ODVUX/N0356F280 Z104 GESLO N852 LNO |
| Aircraft | B738/M-SDE2E3FGHIRWXY/LB1 |
Departure
| Time | 2026-05-07 15:10 |
|---|---|
| Airport | Heraklion International Nikos Kazantzakis Airport (LGIR) |
Arrival
| Time | N/A |
|---|---|
| Airport | Brussels South Charleroi Airport (EBCI) |
| Time | Latitude | Longitude | Altitude | Speed | Heading |
|---|---|---|---|---|---|
| 2026-05-07 14:53 | 35.33889 | 25.17152 | 123 ft | 0 kts | 315° |
| 2026-05-07 15:06 | 35.33922 | 25.17154 | 123 ft | 13 kts | 41° |
| 2026-05-07 15:06 | 35.33926 | 25.17308 | 123 ft | 28 kts | 95° |
| 2026-05-07 15:07 | 35.33910 | 25.17551 | 123 ft | 28 kts | 95° |
| 2026-05-07 15:07 | 35.33894 | 25.17777 | 123 ft | 25 kts | 94° |
| 2026-05-07 15:07 | 35.33881 | 25.17975 | 123 ft | 23 kts | 95° |
| 2026-05-07 15:07 | 35.33867 | 25.18164 | 123 ft | 22 kts | 95° |
| 2026-05-07 15:08 | 35.33854 | 25.18345 | 123 ft | 21 kts | 95° |
| 2026-05-07 15:08 | 35.33841 | 25.18554 | 123 ft | 28 kts | 94° |
| 2026-05-07 15:08 | 35.33827 | 25.18769 | 123 ft | 23 kts | 95° |
| 2026-05-07 15:08 | 35.33835 | 25.18959 | 123 ft | 22 kts | 56° |
| 2026-05-07 15:09 | 35.33899 | 25.19057 | 123 ft | 2 kts | 326° |
| 2026-05-07 15:09 | 35.33904 | 25.19038 | 123 ft | 7 kts | 282° |
| 2026-05-07 15:09 | 35.33918 | 25.18857 | 123 ft | 44 kts | 275° |
| 2026-05-07 15:09 | 35.33961 | 25.18210 | 123 ft | 107 kts | 275° |
| 2026-05-07 15:10 | 35.34040 | 25.17071 | 179 ft | 154 kts | 275° |
| 2026-05-07 15:10 | 35.34120 | 25.15755 | 843 ft | 155 kts | 276° |
| 2026-05-07 15:10 | 35.34517 | 25.14472 | 1342 ft | 168 kts | 310° |
| 2026-05-07 15:10 | 35.35492 | 25.13704 | 2051 ft | 173 kts | 338° |
| 2026-05-07 15:11 | 35.36731 | 25.13260 | 2512 ft | 199 kts | 343° |
| 2026-05-07 15:11 | 35.38150 | 25.12755 | 2844 ft | 227 kts | 344° |
| 2026-05-07 15:11 | 35.39747 | 25.12196 | 3308 ft | 250 kts | 345° |
| 2026-05-07 15:11 | 35.41453 | 25.11605 | 3985 ft | 264 kts | 345° |
| 2026-05-07 15:12 | 35.43262 | 25.10977 | 4900 ft | 270 kts | 344° |
| 2026-05-07 15:12 | 35.45081 | 25.10343 | 5862 ft | 273 kts | 344° |
| 2026-05-07 15:12 | 35.46927 | 25.09697 | 6745 ft | 278 kts | 344° |
| 2026-05-07 15:12 | 35.48785 | 25.08968 | 7604 ft | 283 kts | 338° |
| 2026-05-07 15:13 | 35.50586 | 25.07926 | 8476 ft | 287 kts | 333° |
| 2026-05-07 15:13 | 35.52376 | 25.06808 | 9354 ft | 290 kts | 332° |
| 2026-05-07 15:13 | 35.54171 | 25.05664 | 10284 ft | 291 kts | 331° |
| 2026-05-07 15:13 | 35.55970 | 25.04512 | 11132 ft | 296 kts | 331° |
| 2026-05-07 15:14 | 35.57846 | 25.03309 | 11647 ft | 312 kts | 331° |
| 2026-05-07 15:14 | 35.59806 | 25.02052 | 12250 ft | 323 kts | 332° |
| 2026-05-07 15:14 | 35.61815 | 25.00764 | 13015 ft | 328 kts | 331° |
| 2026-05-07 15:14 | 35.63855 | 24.99454 | 13822 ft | 333 kts | 331° |
| 2026-05-07 15:15 | 35.65948 | 24.98109 | 14664 ft | 336 kts | 331° |
| 2026-05-07 15:15 | 35.68029 | 24.96771 | 15488 ft | 341 kts | 330° |
| 2026-05-07 15:15 | 35.70143 | 24.95411 | 16323 ft | 344 kts | 330° |
| 2026-05-07 15:15 | 35.72278 | 24.94037 | 17110 ft | 348 kts | 330° |
| 2026-05-07 15:16 | 35.74437 | 24.92646 | 17875 ft | 352 kts | 330° |
| 2026-05-07 15:16 | 35.76608 | 24.91246 | 18655 ft | 355 kts | 329° |
| 2026-05-07 15:16 | 35.78802 | 24.89830 | 19454 ft | 357 kts | 329° |
| 2026-05-07 15:16 | 35.81014 | 24.88409 | 20209 ft | 359 kts | 330° |
| 2026-05-07 15:17 | 35.83242 | 24.86986 | 20937 ft | 362 kts | 330° |
| 2026-05-07 15:17 | 35.85483 | 24.85551 | 21649 ft | 364 kts | 330° |
| 2026-05-07 15:17 | 35.87731 | 24.84108 | 22347 ft | 366 kts | 330° |
| 2026-05-07 15:17 | 35.90003 | 24.82647 | 23002 ft | 369 kts | 330° |
| 2026-05-07 15:18 | 35.92308 | 24.81162 | 23643 ft | 371 kts | 329° |
| 2026-05-07 15:18 | 35.94570 | 24.79704 | 24265 ft | 373 kts | 329° |
| 2026-05-07 15:18 | 35.96870 | 24.78219 | 24920 ft | 373 kts | 329° |
| 2026-05-07 15:18 | 35.99173 | 24.76731 | 25579 ft | 373 kts | 329° |
| 2026-05-07 15:19 | 36.01506 | 24.75222 | 26178 ft | 375 kts | 329° |
| 2026-05-07 15:19 | 36.03800 | 24.73737 | 26714 ft | 377 kts | 329° |
| 2026-05-07 15:19 | 36.06157 | 24.72211 | 27308 ft | 377 kts | 329° |
| 2026-05-07 15:19 | 36.08473 | 24.70708 | 27857 ft | 378 kts | 329° |
| 2026-05-07 15:20 | 36.10844 | 24.69171 | 28374 ft | 380 kts | 329° |
| 2026-05-07 15:20 | 36.13172 | 24.67659 | 28879 ft | 381 kts | 329° |
| 2026-05-07 15:20 | 36.15539 | 24.66121 | 29363 ft | 382 kts | 329° |
| 2026-05-07 15:20 | 36.17890 | 24.64592 | 29853 ft | 382 kts | 329° |
| 2026-05-07 15:21 | 36.20241 | 24.63063 | 30309 ft | 383 kts | 329° |
| 2026-05-07 15:21 | 36.22599 | 24.61528 | 30789 ft | 383 kts | 328° |
| 2026-05-07 15:21 | 36.24957 | 24.59991 | 31272 ft | 382 kts | 328° |
| 2026-05-07 15:21 | 36.27294 | 24.58468 | 31890 ft | 377 kts | 328° |
| 2026-05-07 15:22 | 36.29595 | 24.56967 | 32577 ft | 370 kts | 328° |
| 2026-05-07 15:22 | 36.31851 | 24.55494 | 33251 ft | 363 kts | 327° |
| 2026-05-07 15:22 | 36.34070 | 24.54045 | 33917 ft | 357 kts | 327° |
| 2026-05-07 15:22 | 36.36251 | 24.52619 | 34502 ft | 352 kts | 327° |
| 2026-05-07 15:23 | 36.38403 | 24.51210 | 34911 ft | 351 kts | 327° |
| 2026-05-07 15:23 | 36.40556 | 24.49802 | 35310 ft | 350 kts | 327° |
| 2026-05-07 15:23 | 36.42723 | 24.48381 | 35759 ft | 348 kts | 327° |
| 2026-05-07 15:23 | 36.44857 | 24.46983 | 36163 ft | 347 kts | 327° |
| 2026-05-07 15:24 | 36.46989 | 24.45585 | 36539 ft | 346 kts | 327° |
| 2026-05-07 15:24 | 36.49108 | 24.44194 | 36977 ft | 343 kts | 327° |
| 2026-05-07 15:24 | 36.51232 | 24.42800 | 37370 ft | 341 kts | 327° |
| 2026-05-07 15:24 | 36.53307 | 24.41437 | 37710 ft | 340 kts | 327° |
| 2026-05-07 15:25 | 36.55420 | 24.40047 | 38055 ft | 339 kts | 327° |
| 2026-05-07 15:25 | 36.57517 | 24.38668 | 38119 ft | 344 kts | 327° |
| 2026-05-07 15:25 | 36.61836 | 24.35824 | 38141 ft | 351 kts | 327° |
| 2026-05-07 15:26 | 36.66132 | 24.32992 | 38141 ft | 348 kts | 327° |
| 2026-05-07 15:26 | 36.69683 | 24.30648 | 38141 ft | 348 kts | 327° |
| 2026-05-07 15:27 | 36.73963 | 24.27820 | 38142 ft | 348 kts | 327° |
| 2026-05-07 15:27 | 36.78240 | 24.24989 | 38141 ft | 348 kts | 327° |
| 2026-05-07 15:28 | 36.82519 | 24.22155 | 38141 ft | 348 kts | 327° |
| 2026-05-07 15:28 | 36.86829 | 24.19295 | 38142 ft | 348 kts | 327° |
| 2026-05-07 15:29 | 36.91101 | 24.16458 | 38142 ft | 348 kts | 327° |
| 2026-05-07 15:29 | 36.95357 | 24.13628 | 38142 ft | 348 kts | 327° |
| 2026-05-07 15:30 | 36.99627 | 24.10784 | 38142 ft | 347 kts | 326° |
| 2026-05-07 15:30 | 37.03901 | 24.07935 | 38139 ft | 348 kts | 326° |
| 2026-05-07 15:31 | 37.08170 | 24.05085 | 38142 ft | 348 kts | 326° |
| 2026-05-07 15:31 | 37.12440 | 24.02230 | 38142 ft | 348 kts | 326° |
| 2026-05-07 15:32 | 37.16706 | 23.99375 | 38142 ft | 348 kts | 326° |
| 2026-05-07 15:32 | 37.20982 | 23.96510 | 38274 ft | 347 kts | 326° |
| 2026-05-07 15:33 | 37.23101 | 23.95088 | 38710 ft | 342 kts | 326° |
| 2026-05-07 15:33 | 37.25222 | 23.93664 | 39219 ft | 337 kts | 326° |
| 2026-05-07 15:33 | 37.27267 | 23.92290 | 39379 ft | 339 kts | 326° |
| 2026-05-07 15:33 | 37.29385 | 23.90866 | 39511 ft | 342 kts | 326° |
| 2026-05-07 15:34 | 37.31452 | 23.89476 | 39634 ft | 345 kts | 326° |
| 2026-05-07 15:34 | 37.33624 | 23.88015 | 39791 ft | 348 kts | 326° |
| 2026-05-07 15:34 | 37.35805 | 23.86546 | 40005 ft | 349 kts | 326° |
| 2026-05-07 15:34 | 37.37932 | 23.85112 | 40124 ft | 351 kts | 326° |
| 2026-05-07 15:35 | 37.42313 | 23.82157 | 40140 ft | 359 kts | 326° |
| 2026-05-07 15:35 | 37.46733 | 23.79172 | 40142 ft | 361 kts | 326° |
| 2026-05-07 15:36 | 37.51120 | 23.76204 | 40141 ft | 358 kts | 326° |
| 2026-05-07 15:36 | 37.55504 | 23.73235 | 40142 ft | 359 kts | 326° |
| 2026-05-07 15:37 | 37.59912 | 23.70245 | 40142 ft | 359 kts | 326° |
| 2026-05-07 15:37 | 37.64305 | 23.67262 | 40142 ft | 359 kts | 326° |
| 2026-05-07 15:38 | 37.68696 | 23.64276 | 40142 ft | 358 kts | 326° |
| 2026-05-07 15:38 | 37.73098 | 23.61278 | 40142 ft | 358 kts | 326° |
| 2026-05-07 15:39 | 37.77487 | 23.58286 | 40141 ft | 358 kts | 326° |
| 2026-05-07 15:39 | 37.81853 | 23.55304 | 40141 ft | 358 kts | 326° |
| 2026-05-07 15:40 | 37.86278 | 23.52279 | 40140 ft | 359 kts | 326° |
| 2026-05-07 15:40 | 37.90668 | 23.49273 | 40141 ft | 358 kts | 326° |
| 2026-05-07 15:41 | 37.95058 | 23.46264 | 40141 ft | 358 kts | 326° |
| 2026-05-07 15:41 | 37.99437 | 23.43257 | 40141 ft | 358 kts | 326° |
| 2026-05-07 15:42 | 38.03840 | 23.40230 | 40142 ft | 362 kts | 326° |
| 2026-05-07 15:42 | 38.08294 | 23.37164 | 40141 ft | 362 kts | 326° |
| 2026-05-07 15:43 | 38.12714 | 23.34117 | 40139 ft | 362 kts | 326° |
| 2026-05-07 15:43 | 38.17067 | 23.31111 | 40139 ft | 364 kts | 326° |
| 2026-05-07 15:44 | 38.21623 | 23.27962 | 40135 ft | 365 kts | 326° |
| 2026-05-07 15:44 | 38.26094 | 23.24866 | 40135 ft | 364 kts | 326° |
| 2026-05-07 15:45 | 38.30549 | 23.21778 | 40133 ft | 365 kts | 326° |
| 2026-05-07 15:45 | 38.35020 | 23.18673 | 40130 ft | 366 kts | 326° |
| 2026-05-07 15:46 | 38.41745 | 23.13996 | 40125 ft | 368 kts | 326° |
| 2026-05-07 15:47 | 38.46266 | 23.10847 | 40121 ft | 367 kts | 326° |
| 2026-05-07 15:47 | 38.50724 | 23.07736 | 40118 ft | 368 kts | 326° |
| 2026-05-07 15:48 | 38.55219 | 23.04595 | 40116 ft | 369 kts | 326° |
| 2026-05-07 15:48 | 38.59723 | 23.01443 | 40113 ft | 369 kts | 326° |
| 2026-05-07 15:49 | 38.64273 | 22.98255 | 40111 ft | 370 kts | 326° |
| 2026-05-07 15:49 | 38.68758 | 22.95107 | 40110 ft | 370 kts | 325° |
| 2026-05-07 15:50 | 38.73275 | 22.91932 | 40109 ft | 370 kts | 326° |
| 2026-05-07 15:50 | 38.77797 | 22.88750 | 40108 ft | 371 kts | 326° |
| 2026-05-07 15:51 | 38.82326 | 22.85557 | 40108 ft | 372 kts | 326° |
| 2026-05-07 15:51 | 38.86859 | 22.82358 | 40108 ft | 372 kts | 325° |
| 2026-05-07 15:52 | 38.91405 | 22.79144 | 40108 ft | 373 kts | 325° |
| 2026-05-07 15:52 | 38.95212 | 22.76449 | 40115 ft | 373 kts | 325° |
| 2026-05-07 15:53 | 38.99758 | 22.73227 | 40115 ft | 373 kts | 325° |
| 2026-05-07 15:53 | 39.04303 | 22.70000 | 40114 ft | 373 kts | 325° |
| 2026-05-07 15:54 | 39.08855 | 22.66764 | 40113 ft | 374 kts | 325° |
| 2026-05-07 15:54 | 39.13402 | 22.63527 | 40113 ft | 374 kts | 325° |
| 2026-05-07 15:55 | 39.17963 | 22.60275 | 40113 ft | 375 kts | 325° |
| 2026-05-07 15:55 | 39.22532 | 22.57012 | 40112 ft | 375 kts | 325° |
| 2026-05-07 15:56 | 39.27090 | 22.53752 | 40114 ft | 375 kts | 325° |
| 2026-05-07 15:56 | 39.31659 | 22.50479 | 40115 ft | 376 kts | 325° |
| 2026-05-07 15:57 | 39.36229 | 22.47201 | 40117 ft | 376 kts | 325° |
| 2026-05-07 15:57 | 39.40798 | 22.43918 | 40118 ft | 376 kts | 325° |
| 2026-05-07 15:58 | 39.45369 | 22.40630 | 40121 ft | 376 kts | 325° |
| 2026-05-07 15:58 | 39.49949 | 22.37329 | 40123 ft | 377 kts | 325° |
| 2026-05-07 15:59 | 39.54504 | 22.34042 | 40127 ft | 377 kts | 325° |
| 2026-05-07 15:59 | 39.59089 | 22.30728 | 40130 ft | 377 kts | 325° |
| 2026-05-07 16:00 | 39.63673 | 22.27410 | 40133 ft | 377 kts | 325° |
| 2026-05-07 16:00 | 39.68250 | 22.24091 | 40137 ft | 377 kts | 325° |
| 2026-05-07 16:01 | 39.72830 | 22.20766 | 40138 ft | 377 kts | 325° |
| 2026-05-07 16:01 | 39.77406 | 22.17438 | 40141 ft | 377 kts | 325° |
| 2026-05-07 16:02 | 39.81975 | 22.14111 | 40146 ft | 377 kts | 325° |
| 2026-05-07 16:02 | 39.86558 | 22.10767 | 40149 ft | 377 kts | 325° |
| 2026-05-07 16:03 | 39.91130 | 22.07426 | 40150 ft | 377 kts | 325° |
| 2026-05-07 16:03 | 39.95709 | 22.04076 | 40155 ft | 378 kts | 325° |
| 2026-05-07 16:04 | 40.00286 | 22.00721 | 40158 ft | 377 kts | 325° |
| 2026-05-07 16:04 | 40.04857 | 21.97367 | 40161 ft | 377 kts | 325° |
| 2026-05-07 16:05 | 40.09430 | 21.94006 | 40164 ft | 377 kts | 325° |
| 2026-05-07 16:05 | 40.13993 | 21.90645 | 40165 ft | 377 kts | 324° |
| 2026-05-07 16:06 | 40.18560 | 21.87278 | 40168 ft | 377 kts | 324° |
| 2026-05-07 16:06 | 40.23139 | 21.83895 | 40170 ft | 378 kts | 324° |
| 2026-05-07 16:07 | 40.27725 | 21.80502 | 40171 ft | 378 kts | 324° |
| 2026-05-07 16:07 | 40.32308 | 21.77108 | 40170 ft | 379 kts | 324° |
| 2026-05-07 16:08 | 40.36902 | 21.73699 | 40170 ft | 380 kts | 324° |
| 2026-05-07 16:08 | 40.41499 | 21.70282 | 40168 ft | 380 kts | 324° |
| 2026-05-07 16:09 | 40.46110 | 21.66850 | 40166 ft | 381 kts | 324° |
| 2026-05-07 16:09 | 40.50748 | 21.63392 | 40163 ft | 382 kts | 324° |
| 2026-05-07 16:10 | 40.55377 | 21.59935 | 40162 ft | 383 kts | 324° |
| 2026-05-07 16:10 | 40.60014 | 21.56479 | 40159 ft | 384 kts | 325° |
| 2026-05-07 16:11 | 40.64650 | 21.53055 | 40156 ft | 384 kts | 324° |
| 2026-05-07 16:11 | 40.69329 | 21.49554 | 40153 ft | 386 kts | 324° |
| 2026-05-07 16:12 | 40.73993 | 21.46047 | 40151 ft | 386 kts | 324° |
| 2026-05-07 16:12 | 40.78648 | 21.42542 | 40148 ft | 387 kts | 324° |
| 2026-05-07 16:13 | 40.83341 | 21.39006 | 40146 ft | 388 kts | 324° |
| 2026-05-07 16:13 | 40.87973 | 21.35327 | 40143 ft | 386 kts | 319° |
| 2026-05-07 16:14 | 40.92248 | 21.31028 | 40143 ft | 386 kts | 317° |
| 2026-05-07 16:14 | 40.96481 | 21.26659 | 40142 ft | 386 kts | 317° |
| 2026-05-07 16:15 | 41.00723 | 21.22271 | 40141 ft | 387 kts | 316° |
| 2026-05-07 16:15 | 41.04968 | 21.17873 | 40141 ft | 388 kts | 316° |
| 2026-05-07 16:16 | 41.09220 | 21.13460 | 40141 ft | 388 kts | 316° |
| 2026-05-07 16:16 | 41.13499 | 21.09011 | 40139 ft | 389 kts | 316° |
| 2026-05-07 16:17 | 41.17777 | 21.04607 | 40137 ft | 390 kts | 317° |
| 2026-05-07 16:17 | 41.22069 | 21.00170 | 40138 ft | 390 kts | 316° |
| 2026-05-07 16:18 | 41.26336 | 20.95735 | 40138 ft | 392 kts | 316° |
| 2026-05-07 16:18 | 41.30611 | 20.91278 | 40138 ft | 391 kts | 316° |
| 2026-05-07 16:19 | 41.34956 | 20.86739 | 40139 ft | 392 kts | 316° |
| 2026-05-07 16:19 | 41.39257 | 20.82236 | 40138 ft | 393 kts | 316° |
| 2026-05-07 16:20 | 41.43568 | 20.77744 | 40134 ft | 394 kts | 316° |
| 2026-05-07 16:20 | 41.47826 | 20.73286 | 40127 ft | 395 kts | 316° |
| 2026-05-07 16:21 | 41.52144 | 20.68735 | 40123 ft | 396 kts | 316° |
| 2026-05-07 16:21 | 41.56456 | 20.64174 | 40120 ft | 396 kts | 316° |
| 2026-05-07 16:22 | 41.60785 | 20.59589 | 40117 ft | 398 kts | 316° |
| 2026-05-07 16:22 | 41.65120 | 20.54997 | 40114 ft | 398 kts | 316° |
| 2026-05-07 16:23 | 41.69473 | 20.50392 | 40111 ft | 399 kts | 316° |
| 2026-05-07 16:23 | 41.73811 | 20.45811 | 40109 ft | 400 kts | 316° |
| 2026-05-07 16:24 | 41.78210 | 20.41150 | 40107 ft | 401 kts | 316° |
| 2026-05-07 16:24 | 41.82587 | 20.36500 | 40105 ft | 401 kts | 316° |
| 2026-05-07 16:25 | 41.86964 | 20.31842 | 40103 ft | 403 kts | 316° |
| 2026-05-07 16:25 | 41.90622 | 20.27943 | 40102 ft | 403 kts | 316° |
| 2026-05-07 16:26 | 41.95777 | 20.22473 | 40101 ft | 404 kts | 317° |
| 2026-05-07 16:26 | 42.00192 | 20.17803 | 40099 ft | 404 kts | 316° |
| 2026-05-07 16:27 | 42.04609 | 20.13098 | 40098 ft | 405 kts | 316° |
| 2026-05-07 16:27 | 42.08280 | 20.09175 | 40097 ft | 405 kts | 316° |
| 2026-05-07 16:28 | 42.12686 | 20.04455 | 40096 ft | 405 kts | 316° |
| 2026-05-07 16:28 | 42.17091 | 19.99726 | 40095 ft | 405 kts | 316° |
| 2026-05-07 16:29 | 42.21495 | 19.94988 | 40094 ft | 405 kts | 316° |
| 2026-05-07 16:29 | 42.25893 | 19.90248 | 40092 ft | 404 kts | 316° |
| 2026-05-07 16:30 | 42.30298 | 19.85523 | 40091 ft | 405 kts | 316° |
| 2026-05-07 16:30 | 42.34706 | 19.80770 | 40090 ft | 405 kts | 316° |
| 2026-05-07 16:31 | 42.39086 | 19.76012 | 40088 ft | 404 kts | 316° |
| 2026-05-07 16:31 | 42.43464 | 19.71245 | 40085 ft | 404 kts | 316° |
| 2026-05-07 16:32 | 42.47835 | 19.66476 | 40085 ft | 404 kts | 316° |
| 2026-05-07 16:32 | 42.52215 | 19.61698 | 40085 ft | 404 kts | 316° |
| 2026-05-07 16:33 | 42.56516 | 19.56806 | 40084 ft | 402 kts | 313° |
| 2026-05-07 16:33 | 42.60704 | 19.51770 | 40083 ft | 403 kts | 313° |
| 2026-05-07 16:34 | 42.64903 | 19.46731 | 40079 ft | 402 kts | 313° |
| 2026-05-07 16:34 | 42.69094 | 19.41703 | 40078 ft | 401 kts | 313° |
| 2026-05-07 16:35 | 42.73284 | 19.36672 | 40077 ft | 402 kts | 313° |
| 2026-05-07 16:35 | 42.77494 | 19.31609 | 40076 ft | 401 kts | 313° |
| 2026-05-07 16:36 | 42.81703 | 19.26596 | 40074 ft | 402 kts | 313° |
| 2026-05-07 16:36 | 42.85907 | 19.21588 | 40076 ft | 401 kts | 313° |
| 2026-05-07 16:37 | 42.90099 | 19.16563 | 40075 ft | 402 kts | 313° |
| 2026-05-07 16:37 | 42.94288 | 19.11522 | 40074 ft | 401 kts | 313° |
| 2026-05-07 16:38 | 42.98474 | 19.06471 | 40073 ft | 401 kts | 313° |
| 2026-05-07 16:38 | 43.02652 | 19.01418 | 40072 ft | 401 kts | 313° |
| 2026-05-07 16:39 | 43.06827 | 18.96358 | 40071 ft | 401 kts | 313° |
| 2026-05-07 16:39 | 43.11009 | 18.91279 | 40070 ft | 402 kts | 313° |
| 2026-05-07 16:40 | 43.15187 | 18.86196 | 40068 ft | 402 kts | 312° |
| 2026-05-07 16:40 | 43.19364 | 18.81103 | 40065 ft | 402 kts | 312° |
| 2026-05-07 16:41 | 43.23537 | 18.76006 | 40066 ft | 402 kts | 312° |
| 2026-05-07 16:41 | 43.27712 | 18.70897 | 40063 ft | 403 kts | 312° |
| 2026-05-07 16:42 | 43.31902 | 18.65760 | 40065 ft | 404 kts | 312° |
| 2026-05-07 16:42 | 43.36119 | 18.60579 | 40065 ft | 404 kts | 312° |
| 2026-05-07 16:43 | 43.40309 | 18.55422 | 40064 ft | 405 kts | 313° |
| 2026-05-07 16:43 | 43.44645 | 18.50074 | 40063 ft | 406 kts | 313° |
| 2026-05-07 16:44 | 43.48849 | 18.44879 | 40062 ft | 406 kts | 312° |
| 2026-05-07 16:44 | 43.53051 | 18.39677 | 40060 ft | 407 kts | 313° |
| 2026-05-07 16:45 | 43.57260 | 18.34454 | 40059 ft | 408 kts | 313° |
| 2026-05-07 16:45 | 43.61510 | 18.29172 | 40059 ft | 408 kts | 313° |
| 2026-05-07 16:46 | 43.65681 | 18.23976 | 40057 ft | 410 kts | 313° |
| 2026-05-07 16:46 | 43.69935 | 18.18668 | 40056 ft | 410 kts | 313° |
| 2026-05-07 16:47 | 43.74193 | 18.13343 | 40055 ft | 410 kts | 313° |
| 2026-05-07 16:47 | 43.78397 | 18.08076 | 40056 ft | 411 kts | 313° |
| 2026-05-07 16:48 | 43.82618 | 18.02777 | 40056 ft | 411 kts | 313° |
| 2026-05-07 16:48 | 43.86859 | 17.97441 | 40053 ft | 411 kts | 313° |
| 2026-05-07 16:49 | 43.91150 | 17.92085 | 40053 ft | 411 kts | 313° |
| 2026-05-07 16:49 | 43.95380 | 17.86745 | 40052 ft | 411 kts | 312° |
| 2026-05-07 16:50 | 43.99591 | 17.81398 | 40048 ft | 410 kts | 312° |
| 2026-05-07 16:50 | 44.03811 | 17.76029 | 40045 ft | 411 kts | 312° |
| 2026-05-07 16:51 | 44.08019 | 17.70667 | 40042 ft | 412 kts | 312° |
| 2026-05-07 16:51 | 44.12222 | 17.65205 | 40041 ft | 410 kts | 309° |
| 2026-05-07 16:52 | 44.16042 | 17.59336 | 40040 ft | 409 kts | 306° |
| 2026-05-07 16:52 | 44.19789 | 17.53372 | 40038 ft | 409 kts | 306° |
| 2026-05-07 16:53 | 44.23561 | 17.47417 | 40037 ft | 410 kts | 307° |
| 2026-05-07 16:53 | 44.26733 | 17.42419 | 40037 ft | 411 kts | 307° |
| 2026-05-07 16:54 | 44.30526 | 17.36441 | 40035 ft | 412 kts | 307° |
| 2026-05-07 16:54 | 44.34317 | 17.30463 | 40034 ft | 412 kts | 307° |
| 2026-05-07 16:55 | 44.38167 | 17.24493 | 40032 ft | 413 kts | 307° |
| 2026-05-07 16:55 | 44.41995 | 17.18523 | 40031 ft | 412 kts | 307° |
| 2026-05-07 16:56 | 44.45795 | 17.12504 | 40030 ft | 413 kts | 306° |
| 2026-05-07 16:56 | 44.51492 | 17.03429 | 40028 ft | 414 kts | 306° |
| 2026-05-07 16:57 | 44.55252 | 16.97427 | 40027 ft | 414 kts | 306° |
| 2026-05-07 16:57 | 44.59089 | 16.91299 | 40027 ft | 414 kts | 306° |
| 2026-05-07 16:58 | 44.62895 | 16.85224 | 40026 ft | 414 kts | 306° |
| 2026-05-07 16:58 | 44.66696 | 16.79135 | 40027 ft | 414 kts | 306° |
| 2026-05-07 16:59 | 44.70488 | 16.73044 | 40026 ft | 414 kts | 306° |
| 2026-05-07 16:59 | 44.74283 | 16.66936 | 40026 ft | 415 kts | 306° |
| 2026-05-07 17:00 | 44.78147 | 16.60820 | 40025 ft | 416 kts | 306° |
| 2026-05-07 17:00 | 44.81960 | 16.54713 | 40025 ft | 415 kts | 306° |
| 2026-05-07 17:01 | 44.85725 | 16.48617 | 40023 ft | 416 kts | 306° |
| 2026-05-07 17:01 | 44.89546 | 16.42409 | 40019 ft | 417 kts | 306° |
| 2026-05-07 17:02 | 44.93340 | 16.36236 | 40018 ft | 416 kts | 306° |
| 2026-05-07 17:02 | 44.97140 | 16.30047 | 40011 ft | 417 kts | 306° |
| 2026-05-07 17:03 | 45.01052 | 16.23981 | 40008 ft | 419 kts | 308° |
| 2026-05-07 17:03 | 45.05006 | 16.17939 | 40007 ft | 418 kts | 307° |
| 2026-05-07 17:04 | 45.08927 | 16.11836 | 40005 ft | 419 kts | 307° |
| 2026-05-07 17:04 | 45.12834 | 16.05721 | 40003 ft | 419 kts | 307° |
| 2026-05-07 17:05 | 45.16740 | 15.99591 | 39996 ft | 419 kts | 306° |
| 2026-05-07 17:05 | 45.20659 | 15.93441 | 39994 ft | 421 kts | 306° |
| 2026-05-07 17:06 | 45.24647 | 15.87370 | 39993 ft | 423 kts | 309° |
| 2026-05-07 17:06 | 45.28858 | 15.81498 | 39992 ft | 424 kts | 309° |
| 2026-05-07 17:07 | 45.33037 | 15.75614 | 39992 ft | 424 kts | 309° |
| 2026-05-07 17:07 | 45.37216 | 15.69683 | 39991 ft | 424 kts | 309° |
| 2026-05-07 17:08 | 45.41383 | 15.63745 | 39991 ft | 424 kts | 309° |
| 2026-05-07 17:08 | 45.45547 | 15.57794 | 39988 ft | 424 kts | 309° |
| 2026-05-07 17:09 | 45.49731 | 15.51883 | 39987 ft | 424 kts | 309° |
| 2026-05-07 17:09 | 45.53915 | 15.45938 | 39979 ft | 424 kts | 309° |
| 2026-05-07 17:10 | 45.58080 | 15.39981 | 39977 ft | 424 kts | 309° |
| 2026-05-07 17:10 | 45.62249 | 15.33996 | 39975 ft | 425 kts | 309° |
| 2026-05-07 17:11 | 45.66407 | 15.28010 | 39974 ft | 425 kts | 309° |
| 2026-05-07 17:11 | 45.70595 | 15.22032 | 39974 ft | 425 kts | 309° |
| 2026-05-07 17:12 | 45.74739 | 15.16034 | 39975 ft | 424 kts | 309° |
| 2026-05-07 17:12 | 45.78883 | 15.10005 | 39976 ft | 424 kts | 309° |
| 2026-05-07 17:13 | 45.83020 | 15.03971 | 39975 ft | 424 kts | 308° |
| 2026-05-07 17:13 | 45.87158 | 14.97934 | 39976 ft | 424 kts | 309° |
| 2026-05-07 17:14 | 45.91243 | 14.91837 | 39973 ft | 423 kts | 306° |
| 2026-05-07 17:14 | 45.94485 | 14.86570 | 39968 ft | 423 kts | 306° |
| 2026-05-07 17:15 | 45.98663 | 14.79786 | 39967 ft | 423 kts | 306° |
| 2026-05-07 17:15 | 46.02576 | 14.73455 | 39968 ft | 425 kts | 306° |
| 2026-05-07 17:16 | 46.06556 | 14.67103 | 39966 ft | 427 kts | 307° |
| 2026-05-07 17:16 | 46.10234 | 14.61221 | 39965 ft | 426 kts | 306° |
| 2026-05-07 17:17 | 46.13976 | 14.55152 | 39966 ft | 426 kts | 306° |
| 2026-05-07 17:17 | 46.17910 | 14.48742 | 39965 ft | 426 kts | 306° |
| 2026-05-07 17:18 | 46.21835 | 14.42334 | 39964 ft | 426 kts | 306° |
| 2026-05-07 17:18 | 46.25742 | 14.35953 | 39966 ft | 426 kts | 306° |
| 2026-05-07 17:19 | 46.29608 | 14.29403 | 39966 ft | 425 kts | 304° |
| 2026-05-07 17:19 | 46.33405 | 14.22837 | 39965 ft | 425 kts | 304° |
| 2026-05-07 17:20 | 46.37191 | 14.16278 | 39967 ft | 425 kts | 304° |
| 2026-05-07 17:20 | 46.40985 | 14.09695 | 39967 ft | 425 kts | 304° |
| 2026-05-07 17:21 | 46.44767 | 14.03117 | 39968 ft | 425 kts | 304° |
| 2026-05-07 17:21 | 46.48555 | 13.96525 | 39968 ft | 426 kts | 305° |
| 2026-05-07 17:22 | 46.52391 | 13.89966 | 39969 ft | 426 kts | 305° |
| 2026-05-07 17:22 | 46.56175 | 13.83423 | 39970 ft | 426 kts | 304° |
| 2026-05-07 17:23 | 46.59966 | 13.76828 | 39971 ft | 426 kts | 304° |
| 2026-05-07 17:23 | 46.63795 | 13.70138 | 39972 ft | 426 kts | 304° |
| 2026-05-07 17:24 | 46.67588 | 13.63491 | 39980 ft | 427 kts | 304° |
| 2026-05-07 17:24 | 46.71384 | 13.56820 | 39988 ft | 427 kts | 304° |
| 2026-05-07 17:25 | 46.75170 | 13.50150 | 39992 ft | 428 kts | 304° |
| 2026-05-07 17:25 | 46.78964 | 13.43448 | 39995 ft | 428 kts | 304° |
| 2026-05-07 17:26 | 46.82756 | 13.36735 | 39996 ft | 429 kts | 304° |
| 2026-05-07 17:26 | 46.86548 | 13.30003 | 39999 ft | 429 kts | 304° |
| 2026-05-07 17:27 | 46.90333 | 13.23268 | 40002 ft | 429 kts | 304° |
| 2026-05-07 17:27 | 46.94114 | 13.16524 | 40013 ft | 429 kts | 304° |
| 2026-05-07 17:28 | 46.97871 | 13.09805 | 40029 ft | 429 kts | 304° |
| 2026-05-07 17:28 | 47.01651 | 13.03030 | 40034 ft | 429 kts | 304° |
| 2026-05-07 17:29 | 47.05439 | 12.96221 | 40029 ft | 429 kts | 304° |
| 2026-05-07 17:29 | 47.09210 | 12.89428 | 40029 ft | 429 kts | 304° |
| 2026-05-07 17:30 | 47.12338 | 12.83779 | 40028 ft | 429 kts | 304° |
| 2026-05-07 17:30 | 47.16100 | 12.76969 | 40028 ft | 429 kts | 304° |
| 2026-05-07 17:31 | 47.19539 | 12.70750 | 40028 ft | 430 kts | 305° |
| 2026-05-07 17:31 | 47.23320 | 12.63945 | 40028 ft | 430 kts | 304° |
| 2026-05-07 17:32 | 47.27045 | 12.57065 | 40027 ft | 429 kts | 303° |
| 2026-05-07 17:32 | 47.30632 | 12.50032 | 40034 ft | 429 kts | 302° |
| 2026-05-07 17:33 | 47.34196 | 12.42977 | 40035 ft | 429 kts | 302° |
| 2026-05-07 17:33 | 47.37759 | 12.35898 | 40035 ft | 430 kts | 302° |
| 2026-05-07 17:34 | 47.41315 | 12.28811 | 40035 ft | 430 kts | 303° |
| 2026-05-07 17:34 | 47.44870 | 12.21706 | 40036 ft | 430 kts | 302° |
| 2026-05-07 17:35 | 47.48170 | 12.14319 | 40031 ft | 429 kts | 298° |
| 2026-05-07 17:35 | 47.51313 | 12.06803 | 40040 ft | 428 kts | 298° |
| 2026-05-07 17:36 | 47.54493 | 11.99345 | 40041 ft | 430 kts | 301° |
| 2026-05-07 17:36 | 47.58069 | 11.92230 | 40040 ft | 431 kts | 303° |
| 2026-05-07 17:37 | 47.61660 | 11.85127 | 40040 ft | 431 kts | 303° |
| 2026-05-07 17:37 | 47.65226 | 11.78005 | 40041 ft | 430 kts | 303° |
| 2026-05-07 17:38 | 47.68786 | 11.70852 | 40041 ft | 430 kts | 303° |
| 2026-05-07 17:38 | 47.72329 | 11.63707 | 40043 ft | 430 kts | 303° |
| 2026-05-07 17:39 | 47.75900 | 11.56577 | 40045 ft | 430 kts | 303° |
| 2026-05-07 17:39 | 47.79475 | 11.49470 | 40046 ft | 430 kts | 303° |
| 2026-05-07 17:40 | 47.83039 | 11.42310 | 40048 ft | 430 kts | 303° |
| 2026-05-07 17:40 | 47.86574 | 11.35169 | 40045 ft | 430 kts | 303° |
| 2026-05-07 17:41 | 47.90114 | 11.27988 | 40045 ft | 429 kts | 303° |
| 2026-05-07 17:41 | 47.93644 | 11.20780 | 40046 ft | 429 kts | 302° |
| 2026-05-07 17:42 | 47.97169 | 11.13524 | 40047 ft | 429 kts | 302° |
| 2026-05-07 17:42 | 48.00648 | 11.06327 | 40047 ft | 429 kts | 302° |
| 2026-05-07 17:43 | 48.04154 | 10.99051 | 40046 ft | 431 kts | 302° |
| 2026-05-07 17:43 | 48.07669 | 10.91731 | 40049 ft | 431 kts | 303° |
| 2026-05-07 17:44 | 48.11119 | 10.84526 | 40052 ft | 431 kts | 303° |
| 2026-05-07 17:44 | 48.14690 | 10.77229 | 40052 ft | 431 kts | 303° |
| 2026-05-07 17:45 | 48.18210 | 10.69972 | 40052 ft | 431 kts | 303° |
| 2026-05-07 17:45 | 48.21714 | 10.62690 | 40051 ft | 430 kts | 303° |
| 2026-05-07 17:46 | 48.25195 | 10.55414 | 40056 ft | 430 kts | 303° |
| 2026-05-07 17:46 | 48.28682 | 10.48101 | 40053 ft | 430 kts | 302° |
| 2026-05-07 17:47 | 48.32146 | 10.40814 | 40053 ft | 429 kts | 303° |
| 2026-05-07 17:47 | 48.35614 | 10.33494 | 40053 ft | 430 kts | 302° |
| 2026-05-07 17:48 | 48.39070 | 10.26180 | 40050 ft | 430 kts | 302° |
| 2026-05-07 17:48 | 48.42539 | 10.18817 | 40039 ft | 429 kts | 302° |
| 2026-05-07 17:49 | 48.45979 | 10.11499 | 40035 ft | 429 kts | 302° |
| 2026-05-07 17:49 | 48.49455 | 10.04080 | 40035 ft | 429 kts | 302° |
| 2026-05-07 17:50 | 48.52897 | 9.96717 | 40036 ft | 429 kts | 302° |
| 2026-05-07 17:50 | 48.56329 | 9.89354 | 40034 ft | 429 kts | 302° |
| 2026-05-07 17:51 | 48.59757 | 9.81979 | 40034 ft | 429 kts | 302° |
| 2026-05-07 17:51 | 48.63183 | 9.74589 | 40039 ft | 430 kts | 302° |
| 2026-05-07 17:52 | 48.66604 | 9.67189 | 40045 ft | 430 kts | 302° |
| 2026-05-07 17:52 | 48.70024 | 9.59770 | 40048 ft | 429 kts | 302° |
| 2026-05-07 17:53 | 48.73435 | 9.52351 | 40050 ft | 429 kts | 302° |
| 2026-05-07 17:53 | 48.76849 | 9.44906 | 40051 ft | 430 kts | 302° |
| 2026-05-07 17:54 | 48.80257 | 9.37451 | 40049 ft | 430 kts | 302° |
| 2026-05-07 17:54 | 48.83657 | 9.29995 | 40052 ft | 430 kts | 302° |
| 2026-05-07 17:55 | 48.87056 | 9.22519 | 40052 ft | 430 kts | 302° |
| 2026-05-07 17:55 | 48.90453 | 9.15028 | 40053 ft | 431 kts | 302° |
| 2026-05-07 17:56 | 48.93847 | 9.07522 | 40054 ft | 431 kts | 302° |
| 2026-05-07 17:56 | 48.97232 | 9.00015 | 40053 ft | 430 kts | 302° |
| 2026-05-07 17:57 | 49.00040 | 8.93771 | 40053 ft | 430 kts | 302° |
| 2026-05-07 17:57 | 49.03990 | 8.84963 | 40053 ft | 430 kts | 302° |
| 2026-05-07 17:58 | 49.07364 | 8.77417 | 40055 ft | 431 kts | 302° |
| 2026-05-07 17:58 | 49.10733 | 8.69861 | 40053 ft | 431 kts | 302° |
| 2026-05-07 17:59 | 49.13530 | 8.63572 | 40053 ft | 431 kts | 302° |
| 2026-05-07 17:59 | 49.16894 | 8.55987 | 40053 ft | 431 kts | 302° |
| 2026-05-07 18:00 | 49.20253 | 8.48394 | 40053 ft | 431 kts | 302° |
| 2026-05-07 18:00 | 49.23627 | 8.40743 | 40052 ft | 431 kts | 302° |
| 2026-05-07 18:01 | 49.26960 | 8.33165 | 40053 ft | 432 kts | 302° |
| 2026-05-07 18:01 | 49.30306 | 8.25537 | 40051 ft | 431 kts | 302° |
| 2026-05-07 18:02 | 49.35347 | 8.14001 | 40050 ft | 432 kts | 302° |
| 2026-05-07 18:03 | 49.39019 | 8.06765 | 40048 ft | 435 kts | 312° |
| 2026-05-07 18:03 | 49.43725 | 8.00869 | 40050 ft | 438 kts | 321° |
| 2026-05-07 18:04 | 49.48680 | 7.95396 | 40051 ft | 438 kts | 322° |
| 2026-05-07 18:04 | 49.53630 | 7.89912 | 40051 ft | 439 kts | 322° |
| 2026-05-07 18:05 | 49.58586 | 7.84402 | 40049 ft | 439 kts | 322° |
| 2026-05-07 18:05 | 49.63531 | 7.78890 | 40055 ft | 438 kts | 321° |
| 2026-05-07 18:06 | 49.68491 | 7.73347 | 40051 ft | 438 kts | 321° |